Time;durP1;ratioP1;P1;durP2;ratioP2;P2;SDS_P1;SDS_P2;PMS_P1;PMS_P2;Temp;Humidity;BMP_temperature;BMP_pressure;BME280_temperature;BME280_humidity;BME280_pressure;Samples;Min_cycle;Max_cycle;Signal;HPM_P1;HPM_P2
2021/03/05 00:00:31;;;;;;;22.20;16.33;;;6.90;99.90;;;;;;5072379;28;20273;-53
2021/03/05 00:02:57;;;;;;;22.37;16.33;;;6.80;99.90;;;;;;5072860;28;20197;-56
2021/03/05 00:05:22;;;;;;;22.90;16.77;;;6.80;99.90;;;;;;5072684;28;20194;-55
2021/03/05 00:07:48;;;;;;;20.57;14.50;;;6.80;99.90;;;;;;5079115;28;20224;-54
2021/03/05 00:10:21;;;;;;;19.47;14.60;;;6.80;99.90;;;;;;5093070;28;20212;-51
2021/03/05 00:12:46;;;;;;;20.03;14.53;;;6.80;99.90;;;;;;5091313;28;20163;-51
2021/03/05 00:15:12;;;;;;;21.47;14.60;;;6.70;99.90;;;;;;5076157;28;20247;-53
2021/03/05 00:17:39;;;;;;;19.67;15.13;;;6.80;99.90;;;;;;5076604;28;20171;-57
2021/03/05 00:20:14;;;;;;;19.30;13.80;;;6.80;99.90;;;;;;5076074;28;20222;-52
2021/03/05 00:22:40;;;;;;;20.37;15.07;;;6.80;99.90;;;;;;5089119;28;20174;-56
2021/03/05 00:25:07;;;;;;;19.17;14.43;;;6.80;99.90;;;;;;5094376;28;20242;-54
2021/03/05 00:27:33;;;;;;;20.47;13.67;;;6.80;99.90;;;;;;5096457;28;20165;-55
2021/03/05 00:29:59;;;;;;;19.73;14.80;;;6.80;99.90;;;;;;5091698;28;20308;-52
2021/03/05 00:32:25;;;;;;;19.07;15.13;;;6.80;99.90;;;;;;5081672;28;20205;-51
2021/03/05 00:34:51;;;;;;;19.63;14.60;;;6.80;99.90;;;;;;5094800;28;20194;-50
2021/03/05 00:37:17;;;;;;;19.33;14.40;;;6.80;99.90;;;;;;5081980;28;20252;-51
2021/03/05 00:39:43;;;;;;;22.07;14.70;;;6.80;99.90;;;;;;5094027;28;20587;-56
2021/03/05 00:42:09;;;;;;;22.33;14.93;;;6.80;99.90;;;;;;5093259;28;20181;-56
2021/03/05 00:44:35;;;;;;;20.57;16.00;;;6.90;99.90;;;;;;5082272;28;20177;-58
2021/03/05 00:47:00;;;;;;;21.40;15.70;;;6.80;99.90;;;;;;5098973;28;20434;-55
2021/03/05 00:49:26;;;;;;;21.20;16.50;;;6.90;99.90;;;;;;5082843;28;20182;-50
2021/03/05 00:51:52;;;;;;;24.10;16.47;;;6.90;99.90;;;;;;5087987;28;20645;-51
2021/03/05 00:54:17;;;;;;;21.03;16.33;;;6.80;99.90;;;;;;5082248;28;20660;-55
2021/03/05 00:56:43;;;;;;;21.13;16.23;;;6.80;99.90;;;;;;5095087;28;20198;-52
2021/03/05 00:59:08;;;;;;;20.83;15.40;;;6.80;99.90;;;;;;5094146;28;20689;-54
2021/03/05 01:01:34;;;;;;;21.53;16.43;;;6.80;99.90;;;;;;5095027;28;20598;-50
2021/03/05 01:03:59;;;;;;;19.27;13.80;;;6.90;99.90;;;;;;5096142;28;20637;-52
2021/03/05 01:06:25;;;;;;;15.97;13.20;;;6.80;99.90;;;;;;5094498;28;20200;-51
2021/03/05 01:08:50;;;;;;;16.37;12.60;;;6.80;99.90;;;;;;5095812;28;20181;-57
2021/03/05 01:11:16;;;;;;;13.73;10.77;;;6.80;99.90;;;;;;5095873;28;20298;-55
2021/03/05 01:13:42;;;;;;;12.77;9.17;;;6.80;99.90;;;;;;5095653;28;20185;-51
2021/03/05 01:16:08;;;;;;;10.10;8.40;;;6.80;99.90;;;;;;5095417;28;20192;-50
2021/03/05 01:18:34;;;;;;;11.87;7.40;;;6.70;99.90;;;;;;5094966;28;20243;-53
2021/03/05 01:21:00;;;;;;;11.70;7.40;;;6.70;99.90;;;;;;5088184;28;20205;-54
2021/03/05 01:23:25;;;;;;;11.47;7.33;;;6.60;99.90;;;;;;5082456;28;20232;-51
2021/03/05 01:25:51;;;;;;;9.03;6.83;;;6.60;99.90;;;;;;5075448;28;20194;-51
2021/03/05 01:28:17;;;;;;;10.53;6.40;;;6.60;99.90;;;;;;5075554;28;20182;-55
2021/03/05 01:30:42;;;;;;;10.73;6.13;;;6.60;99.90;;;;;;5075464;28;20575;-54
2021/03/05 01:33:08;;;;;;;10.53;6.57;;;6.70;99.90;;;;;;5075404;28;20194;-54
2021/03/05 01:35:33;;;;;;;9.40;6.70;;;6.70;99.90;;;;;;5075023;28;20193;-50
2021/03/05 01:37:59;;;;;;;7.30;5.73;;;6.80;99.90;;;;;;5074633;28;20179;-50
2021/03/05 01:40:35;;;;;;;7.80;6.10;;;6.80;99.90;;;;;;5075332;28;20225;-50
2021/03/05 01:43:01;;;;;;;7.77;6.17;;;6.80;99.90;;;;;;5074755;28;20178;-51
2021/03/05 01:45:29;;;;;;;9.67;6.00;;;6.80;99.90;;;;;;5075522;28;20190;-55
2021/03/05 01:47:59;;;;;;;7.90;6.87;;;6.80;99.90;;;;;;5074985;28;20190;-51
2021/03/05 01:50:31;;;;;;;9.37;5.83;;;6.80;99.90;;;;;;5074366;28;20183;-50
2021/03/05 01:53:00;;;;;;;6.77;5.80;;;6.80;99.90;;;;;;5074761;28;20660;-49
2021/03/05 01:55:26;;;;;;;8.43;6.20;;;6.80;99.90;;;;;;5074933;28;20193;-49
2021/03/05 01:57:53;;;;;;;9.90;6.03;;;6.70;99.90;;;;;;5075051;28;20565;-50
2021/03/05 02:00:28;;;;;;;7.73;5.63;;;6.60;99.90;;;;;;5075314;28;20163;-57
2021/03/05 02:02:54;;;;;;;10.10;6.80;;;6.70;99.90;;;;;;5074029;28;20634;-53
2021/03/05 02:05:20;;;;;;;9.97;6.93;;;6.60;99.90;;;;;;5074293;28;20282;-50
2021/03/05 02:07:46;;;;;;;9.90;7.27;;;6.50;99.90;;;;;;5073726;28;20178;-53
2021/03/05 02:10:11;;;;;;;8.80;7.30;;;6.40;99.90;;;;;;5073850;28;20535;-53
2021/03/05 02:12:37;;;;;;;10.37;7.10;;;6.40;99.90;;;;;;5074582;28;20175;-50
2021/03/05 02:15:04;;;;;;;10.27;7.47;;;6.30;99.90;;;;;;5074021;28;20552;-50
2021/03/05 02:17:55;;;;;;;9.93;7.33;;;6.40;99.90;;;;;;5074430;28;20650;-53
2021/03/05 02:20:47;;;;;;;11.57;8.37;;;6.40;99.90;;;;;;5064254;28;20186;-57
2021/03/05 02:23:32;;;;;;;9.10;7.70;;;6.30;99.90;;;;;;5074320;28;20201;-57
2021/03/05 02:26:52;;;;;;;11.43;8.07;;;6.20;99.90;;;;;;5074354;28;20190;-50
2021/03/05 02:30:00;;;;;;;9.63;8.37;;;6.20;99.90;;;;;;5062999;28;20188;-51
2021/03/05 02:33:02;;;;;;;10.60;8.30;;;6.20;99.90;;;;;;5075838;28;20170;-55
2021/03/05 02:35:31;;;;;;;12.17;8.30;;;6.20;99.90;;;;;;4992877;28;20201;-57
2021/03/05 02:38:01;;;;;;;11.10;8.80;;;6.30;99.90;;;;;;5059048;28;20658;-57
2021/03/05 02:40:39;;;;;;;10.53;8.77;;;6.30;99.90;;;;;;5073734;28;20622;-56
2021/03/05 02:43:08;;;;;;;11.27;9.47;;;6.40;99.90;;;;;;5075129;28;20167;-56
2021/03/05 02:45:38;;;;;;;10.60;9.17;;;6.40;99.90;;;;;;5073757;28;20209;-52
2021/03/05 02:48:27;;;;;;;10.70;9.23;;;6.30;99.90;;;;;;5074248;28;20170;-53
2021/03/05 02:50:57;;;;;;;11.33;8.83;;;6.30;99.90;;;;;;5073598;28;20182;-56
2021/03/05 02:53:26;;;;;;;11.77;9.47;;;6.30;99.90;;;;;;5074528;28;20171;-58
2021/03/05 02:55:55;;;;;;;10.03;8.87;;;6.30;99.90;;;;;;5073918;28;20191;-54
2021/03/05 02:58:23;;;;;;;12.57;9.57;;;6.40;99.90;;;;;;5073587;28;20226;-51
2021/03/05 03:00:52;;;;;;;11.63;9.63;;;6.50;99.90;;;;;;5074672;28;20186;-51
2021/03/05 03:03:19;;;;;;;9.73;8.27;;;6.60;99.90;;;;;;5074888;28;20171;-50
2021/03/05 03:05:46;;;;;;;11.57;9.10;;;6.60;99.90;;;;;;5075453;28;20201;-51
2021/03/05 03:08:12;;;;;;;12.40;8.93;;;6.70;99.90;;;;;;5074423;28;20170;-51
2021/03/05 03:10:38;;;;;;;10.60;9.10;;;6.70;99.90;;;;;;5073283;28;20189;-56
2021/03/05 03:13:05;;;;;;;13.97;9.47;;;6.60;99.90;;;;;;5074038;28;20219;-51
2021/03/05 03:15:33;;;;;;;11.00;8.30;;;6.50;99.90;;;;;;5073889;28;20219;-53
2021/03/05 03:18:05;;;;;;;10.67;9.13;;;6.40;99.90;;;;;;5074258;28;20215;-51
2021/03/05 03:20:31;;;;;;;12.43;9.07;;;6.30;99.90;;;;;;5078656;28;20200;-54
2021/03/05 03:22:57;;;;;;;10.37;8.67;;;6.40;99.90;;;;;;5082302;28;20182;-52
2021/03/05 03:25:24;;;;;;;10.23;8.97;;;6.40;99.90;;;;;;5073991;28;20194;-56
2021/03/05 03:27:50;;;;;;;9.93;8.37;;;6.40;99.90;;;;;;5073822;28;20532;-55
2021/03/05 03:30:17;;;;;;;10.13;8.47;;;6.50;99.90;;;;;;5073350;28;20726;-51
2021/03/05 03:32:44;;;;;;;11.33;8.33;;;6.50;99.90;;;;;;5073053;28;20178;-51
2021/03/05 03:35:11;;;;;;;9.70;7.70;;;6.50;99.90;;;;;;5073845;28;20198;-54
2021/03/05 03:37:38;;;;;;;10.03;7.93;;;6.50;99.90;;;;;;5074138;28;20171;-53
2021/03/05 03:40:10;;;;;;;8.83;7.23;;;6.50;99.90;;;;;;5073926;28;20298;-50
2021/03/05 03:42:36;;;;;;;8.63;7.27;;;6.50;99.90;;;;;;5075761;28;20622;-51
2021/03/05 03:45:04;;;;;;;8.40;7.50;;;6.40;99.90;;;;;;5078462;28;20186;-53
2021/03/05 03:47:30;;;;;;;8.00;7.20;;;6.40;99.90;;;;;;5077519;28;20257;-54
2021/03/05 03:49:57;;;;;;;8.30;7.47;;;6.40;99.90;;;;;;5077170;28;20233;-52
2021/03/05 03:52:39;;;;;;;7.80;7.00;;;6.40;99.90;;;;;;5076818;28;20171;-51
2021/03/05 03:55:08;;;;;;;8.37;7.53;;;6.40;99.90;;;;;;5077224;28;20209;-54
2021/03/05 03:57:44;;;;;;;8.87;7.60;;;6.40;99.90;;;;;;5077020;28;20209;-54
2021/03/05 04:00:12;;;;;;;8.23;7.20;;;6.40;99.90;;;;;;5076805;28;20288;-57
2021/03/05 04:02:38;;;;;;;8.73;7.70;;;6.40;99.90;;;;;;5076523;28;20225;-55
2021/03/05 04:05:09;;;;;;;9.27;6.93;;;6.40;99.90;;;;;;5077775;28;20553;-52
2021/03/05 04:07:37;;;;;;;7.73;6.90;;;6.30;99.90;;;;;;5077345;28;20163;-52
2021/03/05 04:10:04;;;;;;;7.90;6.97;;;6.30;99.90;;;;;;5077341;28;20201;-50
2021/03/05 04:12:31;;;;;;;7.57;6.40;;;6.30;99.90;;;;;;5076171;28;20178;-54
2021/03/05 04:14:57;;;;;;;8.33;7.50;;;6.30;99.90;;;;;;5076764;28;20332;-54
2021/03/05 04:17:23;;;;;;;8.07;6.67;;;6.30;99.90;;;;;;5077891;28;20189;-56
2021/03/05 04:19:49;;;;;;;7.70;6.87;;;6.50;99.90;;;;;;5075349;28;20662;-56
2021/03/05 04:22:17;;;;;;;7.63;6.83;;;6.40;99.90;;;;;;5077630;28;20557;-53
2021/03/05 04:24:42;;;;;;;7.23;6.47;;;6.50;99.90;;;;;;5077562;28;20190;-52
2021/03/05 04:27:08;;;;;;;8.87;7.77;;;6.50;99.90;;;;;;5076671;28;20174;-50
2021/03/05 04:29:34;;;;;;;8.00;7.20;;;6.50;99.90;;;;;;5076104;28;20178;-55
2021/03/05 04:32:00;;;;;;;10.13;7.90;;;6.60;99.90;;;;;;5075999;28;20258;-57
2021/03/05 04:34:25;;;;;;;7.50;6.77;;;6.70;99.90;;;;;;5075989;28;20197;-50
2021/03/05 04:36:51;;;;;;;6.97;6.27;;;6.70;99.90;;;;;;5076303;28;20186;-54
2021/03/05 04:39:17;;;;;;;7.10;6.40;;;6.70;99.90;;;;;;5076326;28;20202;-53
2021/03/05 04:41:42;;;;;;;9.23;7.20;;;6.70;99.90;;;;;;5074434;28;20224;-51
2021/03/05 04:44:08;;;;;;;8.60;6.90;;;6.70;99.90;;;;;;5076768;28;20197;-52
2021/03/05 04:46:33;;;;;;;7.13;6.33;;;6.70;99.90;;;;;;5075495;28;20199;-54
2021/03/05 04:48:59;;;;;;;7.10;6.40;;;6.70;99.90;;;;;;5076638;28;20529;-52
2021/03/05 04:51:24;;;;;;;6.10;5.50;;;6.70;99.90;;;;;;5075694;28;20251;-54
2021/03/05 04:53:50;;;;;;;7.10;5.63;;;6.60;99.90;;;;;;5076114;28;20259;-52
2021/03/05 04:56:16;;;;;;;6.00;5.30;;;6.60;99.90;;;;;;5075234;28;20534;-51
2021/03/05 04:58:41;;;;;;;6.37;5.70;;;6.50;99.90;;;;;;5076541;28;20783;-50
2021/03/05 05:01:07;;;;;;;6.20;5.60;;;6.50;99.90;;;;;;5075428;28;20240;-50
2021/03/05 05:03:32;;;;;;;6.03;5.43;;;6.40;99.90;;;;;;5075580;28;20178;-56
2021/03/05 05:05:58;;;;;;;6.20;5.60;;;6.30;99.90;;;;;;5074872;28;20195;-56
2021/03/05 05:08:24;;;;;;;6.07;5.47;;;6.20;99.90;;;;;;5076541;28;20170;-57
2021/03/05 05:10:49;;;;;;;6.00;5.40;;;6.20;99.90;;;;;;5075720;28;20226;-52
2021/03/05 05:13:15;;;;;;;7.00;5.60;;;6.10;99.90;;;;;;5075703;28;20613;-51
2021/03/05 05:15:40;;;;;;;5.07;4.43;;;6.10;99.90;;;;;;5075573;28;20226;-52
2021/03/05 05:18:06;;;;;;;3.90;3.50;;;6.20;99.90;;;;;;5075445;28;20206;-51
2021/03/05 05:20:32;;;;;;;3.43;2.83;;;6.30;99.90;;;;;;5078057;28;20678;-54
2021/03/05 05:22:58;;;;;;;2.23;2.10;;;6.30;99.90;;;;;;5084974;28;20182;-55
2021/03/05 05:25:23;;;;;;;2.80;2.17;;;6.40;99.90;;;;;;5075107;28;20638;-56
2021/03/05 05:27:49;;;;;;;1.80;1.70;;;6.50;99.90;;;;;;5075926;28;20197;-55
2021/03/05 05:30:15;;;;;;;1.77;1.67;;;6.60;99.90;;;;;;5076172;28;20197;-50
2021/03/05 05:32:40;;;;;;;1.70;1.60;;;6.70;99.90;;;;;;5075827;28;20208;-53
2021/03/05 05:35:06;;;;;;;1.73;1.60;;;6.70;99.90;;;;;;5076219;28;20186;-51
2021/03/05 05:37:33;;;;;;;2.00;1.80;;;6.70;99.90;;;;;;5075410;28;20566;-50
2021/03/05 05:39:58;;;;;;;1.50;1.40;;;6.80;99.90;;;;;;5074991;28;20217;-55
2021/03/05 05:42:24;;;;;;;1.43;1.33;;;6.90;99.90;;;;;;5075227;28;20244;-56
2021/03/05 05:44:49;;;;;;;1.50;1.40;;;6.90;99.90;;;;;;5074525;28;20259;-57
2021/03/05 05:47:16;;;;;;;1.17;1.10;;;6.90;99.90;;;;;;5074563;28;20554;-57
2021/03/05 05:49:44;;;;;;;1.00;1.00;;;6.80;99.90;;;;;;5074825;28;20162;-57
2021/03/05 05:52:24;;;;;;;1.10;1.10;;;6.90;99.90;;;;;;5074933;28;20185;-52
2021/03/05 05:54:53;;;;;;;0.90;0.90;;;6.90;99.90;;;;;;5075442;28;20657;-50
2021/03/05 05:57:20;;;;;;;1.33;0.83;;;6.90;99.90;;;;;;5074981;28;20167;-51
2021/03/05 05:59:46;;;;;;;0.97;0.63;;;6.90;99.90;;;;;;5073997;28;20669;-52
2021/03/05 06:02:12;;;;;;;0.73;0.73;;;6.90;99.90;;;;;;5074976;28;20221;-54
2021/03/05 06:04:38;;;;;;;0.97;0.83;;;6.90;99.90;;;;;;5074015;28;20553;-53
2021/03/05 06:07:04;;;;;;;0.80;0.80;;;6.80;99.90;;;;;;5074706;28;20197;-51
2021/03/05 06:09:30;;;;;;;0.80;0.80;;;6.70;99.90;;;;;;5073946;28;20191;-51
2021/03/05 06:11:57;;;;;;;0.73;0.73;;;6.70;99.90;;;;;;5074416;28;20174;-53
2021/03/05 06:14:23;;;;;;;0.70;0.70;;;6.80;99.90;;;;;;5073868;28;20190;-51
2021/03/05 06:16:59;;;;;;;1.13;0.90;;;6.80;99.90;;;;;;5073430;28;20167;-54
2021/03/05 06:19:26;;;;;;;1.33;0.83;;;6.90;99.90;;;;;;5072233;28;20201;-51
2021/03/05 06:21:52;;;;;;;1.67;1.10;;;7.00;99.90;;;;;;5070543;28;20166;-52
2021/03/05 06:24:18;;;;;;;1.70;1.37;;;7.00;99.90;;;;;;5070734;28;20174;-49
2021/03/05 06:26:58;;;;;;;1.20;1.10;;;7.00;99.90;;;;;;5069718;28;20305;-55
2021/03/05 06:29:27;;;;;;;1.27;1.17;;;7.00;99.90;;;;;;5069778;28;20179;-54
2021/03/05 06:32:02;;;;;;;1.43;1.33;;;7.00;99.90;;;;;;5083459;28;20178;-56
2021/03/05 06:34:28;;;;;;;1.50;1.40;;;7.10;99.90;;;;;;5071748;28;20522;-54
2021/03/05 06:37:03;;;;;;;1.50;1.40;;;7.10;99.90;;;;;;5072518;28;20174;-53
2021/03/05 06:39:30;;;;;;;1.93;1.30;;;7.20;99.90;;;;;;5074366;28;20252;-52
2021/03/05 06:42:13;;;;;;;1.20;1.20;;;7.20;99.90;;;;;;5074174;28;20166;-56
2021/03/05 06:44:40;;;;;;;1.07;0.90;;;7.30;99.90;;;;;;5073986;28;20617;-56
2021/03/05 06:47:19;;;;;;;1.30;1.20;;;7.30;99.90;;;;;;5073722;28;20174;-56
2021/03/05 06:49:47;;;;;;;1.20;1.10;;;7.20;99.90;;;;;;5073293;28;20201;-51
2021/03/05 06:52:14;;;;;;;1.20;1.10;;;7.00;99.90;;;;;;5074202;28;20166;-51
2021/03/05 06:54:41;;;;;;;1.47;1.30;;;6.90;99.90;;;;;;5073215;28;20174;-52
2021/03/05 06:57:08;;;;;;;1.83;1.50;;;6.90;99.90;;;;;;5075044;28;20247;-53
2021/03/05 06:59:42;;;;;;;1.50;1.40;;;6.80;99.90;;;;;;5073762;28;20206;-53
2021/03/05 07:02:15;;;;;;;1.27;1.20;;;6.80;99.90;;;;;;5073271;28;20165;-56
2021/03/05 07:04:47;;;;;;;1.90;1.60;;;6.90;99.90;;;;;;5073294;28;20191;-52
2021/03/05 07:07:13;;;;;;;1.77;1.67;;;7.10;99.90;;;;;;5073360;28;20538;-55
2021/03/05 07:09:43;;;;;;;1.80;1.70;;;7.20;99.90;;;;;;5073579;28;20725;-55
2021/03/05 07:12:24;;;;;;;1.60;1.50;;;7.30;99.90;;;;;;5073277;28;20194;-53
2021/03/05 07:15:05;;;;;;;1.50;1.40;;;7.30;99.90;;;;;;5073309;28;20281;-57
2021/03/05 07:17:31;;;;;;;1.80;1.70;;;7.20;99.90;;;;;;5076194;28;20173;-54
2021/03/05 07:19:57;;;;;;;1.70;1.60;;;7.30;99.90;;;;;;5077425;28;20202;-56
2021/03/05 07:22:28;;;;;;;1.50;1.40;;;7.30;99.90;;;;;;5088515;28;20203;-56
2021/03/05 07:24:58;;;;;;;1.87;1.77;;;7.30;99.90;;;;;;5077624;28;20214;-50
2021/03/05 07:27:46;;;;;;;1.80;1.70;;;7.30;99.90;;;;;;5077569;28;20191;-50
2021/03/05 07:30:14;;;;;;;2.10;1.90;;;7.30;99.90;;;;;;5078864;28;20600;-56
2021/03/05 07:32:46;;;;;;;1.90;1.80;;;7.40;99.90;;;;;;5088468;28;20173;-53
2021/03/05 07:35:21;;;;;;;2.90;2.60;;;7.40;99.90;;;;;;5079506;28;20202;-55
2021/03/05 07:37:52;;;;;;;2.90;2.50;;;7.20;99.90;;;;;;5086384;28;20759;-56
2021/03/05 07:40:18;;;;;;;2.73;2.53;;;7.00;99.90;;;;;;5068359;28;20225;-52
2021/03/05 07:42:45;;;;;;;3.40;2.80;;;7.00;99.90;;;;;;5082911;28;20183;-51
2021/03/05 07:45:12;;;;;;;3.13;2.77;;;6.90;99.90;;;;;;5083576;28;20288;-55
2021/03/05 07:47:40;;;;;;;2.90;2.60;;;6.80;99.90;;;;;;5089005;28;20201;-53
2021/03/05 07:50:08;;;;;;;3.17;2.70;;;6.80;99.90;;;;;;5086810;28;20166;-53
2021/03/05 07:52:34;;;;;;;3.80;3.20;;;6.90;99.90;;;;;;5093273;28;20253;-54
2021/03/05 07:55:00;;;;;;;3.40;2.90;;;6.90;99.90;;;;;;5088090;28;20252;-56
2021/03/05 07:57:29;;;;;;;3.67;2.80;;;6.90;99.90;;;;;;5086181;28;20170;-55
2021/03/05 07:59:56;;;;;;;2.77;2.57;;;6.90;99.90;;;;;;5084669;28;20694;-56
2021/03/05 08:02:23;;;;;;;2.63;2.43;;;6.90;99.90;;;;;;5091464;28;20186;-54
2021/03/05 08:05:04;;;;;;;2.70;2.50;;;7.00;99.90;;;;;;5086123;28;20206;-56
2021/03/05 08:07:32;;;;;;;4.13;3.03;;;7.00;99.90;;;;;;5086189;28;20190;-51
2021/03/05 08:09:57;;;;;;;5.33;3.20;;;7.10;99.90;;;;;;5086246;28;20224;-54
2021/03/05 08:12:27;;;;;;;3.20;2.90;;;7.10;99.90;;;;;;5093529;28;20209;-51
2021/03/05 08:15:08;;;;;;;3.60;3.13;;;7.10;99.90;;;;;;5096024;28;20614;-55
2021/03/05 08:17:39;;;;;;;3.40;3.10;;;7.20;99.90;;;;;;5097316;28;20180;-56
2021/03/05 08:20:06;;;;;;;4.47;3.67;;;7.10;99.90;;;;;;5103146;28;20189;-53
2021/03/05 08:22:33;;;;;;;3.90;3.40;;;7.20;99.90;;;;;;5104738;28;20162;-51
2021/03/05 08:25:22;;;;;;;4.00;3.40;;;7.30;99.90;;;;;;5105468;28;20196;-56
2021/03/05 08:27:47;;;;;;;4.33;3.83;;;7.20;99.90;;;;;;5081810;28;20234;-57
2021/03/05 08:30:14;;;;;;;5.70;4.30;;;7.20;99.90;;;;;;5107051;28;20268;-55
2021/03/05 08:32:51;;;;;;;5.90;4.60;;;7.20;99.90;;;;;;5096014;28;20211;-57
2021/03/05 08:35:16;;;;;;;5.57;4.30;;;7.30;99.90;;;;;;5103554;28;20649;-52
2021/03/05 08:37:47;;;;;;;4.90;4.30;;;7.30;99.90;;;;;;5078428;28;20183;-55
2021/03/05 08:40:21;;;;;;;5.40;4.63;;;7.40;99.90;;;;;;5086373;28;20247;-53
2021/03/05 08:42:48;;;;;;;5.70;4.67;;;7.40;99.90;;;;;;5083781;28;20177;-56
2021/03/05 08:45:29;;;;;;;6.37;4.93;;;7.40;99.90;;;;;;5086112;28;20185;-54
2021/03/05 08:47:57;;;;;;;6.63;4.90;;;7.40;99.90;;;;;;5081018;28;20182;-56
2021/03/05 08:50:30;;;;;;;6.40;4.97;;;7.40;99.90;;;;;;5085477;28;20643;-54
2021/03/05 08:52:58;;;;;;;6.43;5.07;;;7.20;99.90;;;;;;5074976;28;20210;-55
2021/03/05 08:55:23;;;;;;;5.70;4.90;;;7.20;99.90;;;;;;5077632;28;20659;-57
2021/03/05 08:57:52;;;;;;;5.07;4.40;;;7.10;99.90;;;;;;5074799;28;20208;-56
2021/03/05 09:00:19;;;;;;;6.03;4.67;;;6.90;99.90;;;;;;5075357;28;20623;-56
2021/03/05 09:02:47;;;;;;;17.77;14.93;;;6.90;99.90;;;;;;5075087;28;20511;-57
2021/03/05 09:05:23;;;;;;;12.50;9.77;;;7.00;99.90;;;;;;5089926;28;20207;-56
2021/03/05 09:07:56;;;;;;;25.67;20.20;;;7.10;99.90;;;;;;5095462;28;20174;-56
2021/03/05 09:10:39;;;;;;;12.40;9.87;;;7.10;99.90;;;;;;5048703;28;1363415;-53
2021/03/05 09:13:05;;;;;;;6.50;5.80;;;7.10;99.90;;;;;;5075712;28;20174;-54
2021/03/05 09:15:44;;;;;;;5.13;4.30;;;7.20;99.90;;;;;;5079578;28;20692;-54
2021/03/05 09:18:13;;;;;;;4.20;3.53;;;7.30;99.90;;;;;;5080210;28;20182;-55
2021/03/05 09:21:03;;;;;;;4.87;3.90;;;7.40;99.90;;;;;;5080721;28;20174;-53
2021/03/05 09:23:40;;;;;;;4.37;3.77;;;7.40;99.90;;;;;;5086164;28;20261;-51
2021/03/05 09:26:14;;;;;;;4.23;3.63;;;7.50;99.90;;;;;;5093840;28;20662;-52
2021/03/05 09:28:44;;;;;;;3.47;3.17;;;7.50;99.90;;;;;;5093307;28;20189;-52
2021/03/05 09:31:13;;;;;;;3.47;3.13;;;7.50;99.90;;;;;;5092894;28;20170;-57
2021/03/05 09:33:41;;;;;;;3.97;3.40;;;7.50;99.90;;;;;;5092052;28;20187;-53
2021/03/05 09:36:10;;;;;;;3.80;3.33;;;7.60;99.90;;;;;;5073201;28;20562;-57
2021/03/05 09:38:37;;;;;;;3.40;3.10;;;7.50;99.90;;;;;;5076136;28;20248;-52
2021/03/05 09:41:27;;;;;;;4.13;3.20;;;7.40;99.90;;;;;;5091306;28;20330;-56
2021/03/05 09:44:07;;;;;;;4.03;3.63;;;7.60;99.90;;;;;;5095498;28;20205;-54
2021/03/05 09:46:35;;;;;;;3.37;2.90;;;7.70;99.90;;;;;;5077202;28;20675;-51
2021/03/05 09:49:27;;;;;;;3.50;2.93;;;7.90;99.90;;;;;;5075225;28;20240;-56
2021/03/05 09:51:53;;;;;;;3.80;2.80;;;8.10;99.90;;;;;;5074801;28;20179;-50
2021/03/05 09:54:42;;;;;;;3.63;3.10;;;8.20;99.90;;;;;;5074751;28;20205;-57
2021/03/05 09:57:09;;;;;;;3.00;2.70;;;8.30;99.90;;;;;;5075182;28;20210;-55
2021/03/05 09:59:46;;;;;;;4.20;3.43;;;8.70;99.90;;;;;;5074966;28;20285;-56
2021/03/05 10:02:20;;;;;;;2.80;2.60;;;8.80;99.90;;;;;;5086003;28;20181;-58
2021/03/05 10:04:50;;;;;;;3.77;2.80;;;8.90;99.90;;;;;;5094553;28;20251;-55
2021/03/05 10:07:19;;;;;;;3.33;3.00;;;8.90;99.90;;;;;;5095352;28;20170;-57
2021/03/05 10:09:45;;;;;;;4.00;3.33;;;8.90;99.90;;;;;;5094480;28;20656;-55
2021/03/05 10:12:11;;;;;;;4.67;3.10;;;9.10;99.90;;;;;;5094442;28;20184;-50
2021/03/05 10:14:39;;;;;;;3.43;3.13;;;9.40;99.90;;;;;;5095089;28;20629;-53
2021/03/05 10:17:19;;;;;;;4.30;3.20;;;9.80;99.90;;;;;;5093590;28;20191;-52
2021/03/05 10:19:45;;;;;;;3.30;3.00;;;10.00;99.90;;;;;;5081527;28;20734;-56
2021/03/05 10:22:12;;;;;;;3.30;3.00;;;10.20;99.90;;;;;;5089445;28;20260;-54
2021/03/05 10:24:39;;;;;;;2.80;2.60;;;10.30;99.90;;;;;;5094337;28;20188;-52
2021/03/05 10:29:51;;;;;;;3.63;3.30;;;10.80;99.90;;;;;;5081218;28;20189;-54
2021/03/05 10:32:17;;;;;;;3.83;3.50;;;10.80;99.90;;;;;;5073865;28;20181;-53
2021/03/05 10:34:45;;;;;;;3.97;3.53;;;10.70;99.90;;;;;;5094621;28;20661;-55
2021/03/05 10:37:11;;;;;;;7.67;6.00;;;10.60;99.90;;;;;;5094791;28;20174;-57
2021/03/05 10:39:37;;;;;;;11.60;8.50;;;10.40;99.90;;;;;;5082739;28;20262;-57
2021/03/05 10:42:05;;;;;;;9.93;7.40;;;10.20;99.90;;;;;;5075417;28;20175;-58
2021/03/05 10:44:33;;;;;;;52.63;35.83;;;10.10;99.90;;;;;;5081747;28;20182;-55
2021/03/05 10:47:01;;;;;;;53.67;42.77;;;10.30;99.90;;;;;;5080165;28;20576;-59
2021/03/05 10:49:27;;;;;;;4.90;4.20;;;9.90;99.90;;;;;;5079257;28;20468;-57
2021/03/05 10:51:53;;;;;;;3.90;3.33;;;9.50;99.90;;;;;;5073499;28;20185;-57
2021/03/05 10:54:19;;;;;;;4.10;3.57;;;8.90;99.90;;;;;;5075639;28;20175;-54
2021/03/05 10:56:47;;;;;;;4.10;3.70;;;8.60;99.90;;;;;;5094475;28;20197;-50
2021/03/05 10:59:15;;;;;;;5.50;3.97;;;8.40;99.90;;;;;;5094389;28;20198;-49
2021/03/05 11:01:41;;;;;;;4.07;3.67;;;8.00;99.90;;;;;;5093804;28;20185;-53
2021/03/05 11:04:06;;;;;;;4.43;3.90;;;7.90;99.90;;;;;;5085955;28;20560;-53
2021/03/05 11:06:32;;;;;;;4.93;3.95;;;7.80;99.90;;;;;;5073535;28;20413;-51
2021/03/05 11:08:59;;;;;;;4.80;3.93;;;8.50;99.90;;;;;;5079953;28;20312;-55
2021/03/05 11:11:25;;;;;;;4.70;3.93;;;7.50;99.90;;;;;;5091158;28;20203;-57
2021/03/05 11:13:51;;;;;;;5.10;3.73;;;7.30;99.90;;;;;;5109922;28;20177;-56
2021/03/05 11:16:16;;;;;;;4.23;3.83;;;7.30;99.90;;;;;;5095651;28;20205;-52
2021/03/05 11:18:42;;;;;;;4.67;3.77;;;7.40;99.90;;;;;;5091153;28;20592;-52
2021/03/05 11:21:07;;;;;;;4.97;3.80;;;7.60;99.90;;;;;;5076454;28;20198;-49
2021/03/05 11:23:33;;;;;;;4.60;4.00;;;7.80;99.90;;;;;;5071637;28;20809;-56
2021/03/05 11:25:58;;;;;;;3.40;3.07;;;7.80;99.90;;;;;;5071434;28;20186;-55
2021/03/05 11:28:24;;;;;;;4.00;3.60;;;7.90;99.90;;;;;;5071412;28;20166;-55
2021/03/05 11:30:51;;;;;;;4.83;3.80;;;8.00;99.90;;;;;;5071882;28;20175;-57
2021/03/05 11:33:17;;;;;;;4.47;3.87;;;8.00;99.90;;;;;;5071791;28;20534;-50
2021/03/05 11:35:42;;;;;;;4.77;3.63;;;8.10;99.90;;;;;;5070802;28;20642;-53
2021/03/05 11:38:08;;;;;;;4.40;3.80;;;8.10;99.90;;;;;;5071453;28;20427;-55
2021/03/05 11:40:33;;;;;;;5.13;4.07;;;8.10;99.90;;;;;;5072182;28;20284;-53
2021/03/05 11:42:59;;;;;;;4.60;3.67;;;8.10;99.90;;;;;;5073261;28;20167;-51
2021/03/05 11:45:25;;;;;;;5.70;3.90;;;8.10;99.90;;;;;;5074238;28;20225;-55
2021/03/05 11:47:50;;;;;;;6.17;4.67;;;8.00;99.90;;;;;;5073656;28;20181;-54
2021/03/05 11:50:16;;;;;;;5.20;4.30;;;7.90;99.90;;;;;;5074109;28;20260;-51
2021/03/05 11:52:42;;;;;;;8.10;4.10;;;7.80;99.90;;;;;;5073617;28;20289;-56
2021/03/05 11:55:08;;;;;;;5.67;4.50;;;7.80;99.90;;;;;;5073570;28;20232;-52
2021/03/05 11:57:34;;;;;;;4.30;3.63;;;7.70;99.90;;;;;;5073959;28;20175;-56
2021/03/05 11:59:59;;;;;;;4.50;3.70;;;7.70;99.90;;;;;;5073713;28;20220;-52
2021/03/05 12:02:25;;;;;;;4.00;3.30;;;7.70;99.90;;;;;;5074071;28;20174;-49
2021/03/05 12:04:51;;;;;;;5.43;4.00;;;7.60;99.90;;;;;;5077644;28;20186;-55
2021/03/05 12:07:16;;;;;;;4.97;3.83;;;7.40;99.90;;;;;;5077773;28;20210;-54
2021/03/05 12:09:42;;;;;;;4.70;3.63;;;7.30;99.90;;;;;;5076943;28;20284;-51
2021/03/05 12:12:07;;;;;;;5.23;3.60;;;7.30;99.90;;;;;;5077144;28;20182;-50
2021/03/05 12:14:33;;;;;;;5.70;3.80;;;7.10;99.90;;;;;;5077091;28;20170;-51
2021/03/05 12:16:59;;;;;;;5.93;4.47;;;6.90;99.90;;;;;;5076978;28;20684;-55
2021/03/05 12:19:24;;;;;;;5.47;4.33;;;6.90;99.90;;;;;;5078496;28;20301;-49
2021/03/05 12:21:50;;;;;;;5.10;4.07;;;6.90;99.90;;;;;;5076862;28;20178;-52
2021/03/05 12:24:16;;;;;;;4.90;4.00;;;6.80;99.90;;;;;;5076242;28;20185;-52
2021/03/05 12:26:41;;;;;;;4.20;3.60;;;6.80;99.90;;;;;;5077823;28;20205;-53
2021/03/05 12:29:08;;;;;;;4.97;3.60;;;6.80;99.90;;;;;;5076908;28;20534;-56
2021/03/05 12:31:34;;;;;;;5.53;4.30;;;6.90;99.90;;;;;;5077587;28;20277;-51
2021/03/05 12:34:01;;;;;;;4.27;3.53;;;6.80;99.90;;;;;;5078195;28;20590;-52
2021/03/05 12:36:27;;;;;;;4.80;3.57;;;6.80;99.90;;;;;;5077048;28;20202;-52
2021/03/05 12:38:52;;;;;;;4.27;3.87;;;6.60;99.90;;;;;;5076815;28;20224;-50
2021/03/05 12:41:18;;;;;;;5.03;3.97;;;6.60;99.90;;;;;;5077121;28;20174;-55
2021/03/05 12:43:44;;;;;;;4.87;3.57;;;6.60;99.90;;;;;;5076599;28;20237;-51
2021/03/05 12:46:09;;;;;;;6.10;3.97;;;6.70;99.90;;;;;;5077027;28;20202;-51
2021/03/05 12:48:35;;;;;;;5.20;4.03;;;6.40;99.90;;;;;;5076770;28;20266;-49
2021/03/05 12:51:00;;;;;;;5.80;4.33;;;6.20;99.90;;;;;;5076215;28;20216;-49
2021/03/05 12:53:26;;;;;;;5.30;4.03;;;6.00;99.90;;;;;;5076165;28;20202;-52
2021/03/05 12:55:51;;;;;;;5.70;4.30;;;6.10;99.90;;;;;;5076290;28;20197;-54
2021/03/05 12:58:17;;;;;;;6.90;4.23;;;6.10;99.90;;;;;;5076153;28;20174;-54
2021/03/05 13:00:42;;;;;;;4.67;3.70;;;6.10;99.90;;;;;;5076461;28;20243;-50
2021/03/05 13:03:08;;;;;;;5.77;4.60;;;6.30;99.90;;;;;;5075623;28;20224;-51